createdAt,value
2023-01-23T00:05:18.552Z,7.60
2023-01-23T00:07:51.954Z,6.50
2023-01-23T00:10:26.369Z,8.30
2023-01-23T00:12:59.628Z,7.30
2023-01-23T00:15:33.843Z,7.30
2023-01-23T00:18:05.939Z,8.50
2023-01-23T00:20:39.019Z,6.10
2023-01-23T00:25:41.880Z,7.40
2023-01-23T00:28:16.098Z,9.40
2023-01-23T00:30:51.345Z,6.40
2023-01-23T00:37:59.871Z,4.90
2023-01-23T00:40:35.138Z,8.90
2023-01-23T00:43:08.103Z,8.30
2023-01-23T00:48:14.733Z,7.80
2023-01-23T00:50:49.031Z,8.00
2023-01-23T00:53:22.465Z,6.50
2023-01-23T00:55:56.090Z,8.20
2023-01-23T00:58:30.953Z,8.90
2023-01-23T01:01:06.113Z,8.80
2023-01-23T01:03:42.803Z,8.80
2023-01-23T01:06:18.416Z,7.40
2023-01-23T01:08:54.791Z,7.40
2023-01-23T01:11:30.343Z,7.80
2023-01-23T01:14:05.459Z,7.10
2023-01-23T01:16:46.524Z,7.70
2023-01-23T01:19:22.197Z,8.30
2023-01-23T01:21:57.118Z,8.10
2023-01-23T01:24:36.574Z,7.60
2023-01-23T01:34:09.704Z,8.30
2023-01-23T01:36:41.150Z,8.50
2023-01-23T01:39:12.409Z,6.30
2023-01-23T01:41:43.202Z,7.40
2023-01-23T01:44:17.954Z,8.70
2023-01-23T01:46:49.165Z,7.90
2023-01-23T01:49:22.419Z,9.10
2023-01-23T01:51:57.009Z,8.30
2023-01-23T01:54:30.146Z,8.20
2023-01-23T01:57:03.256Z,6.60
2023-01-23T01:59:38.175Z,6.90
2023-01-23T02:02:12.658Z,8.20
2023-01-23T02:04:45.240Z,8.60
2023-01-23T02:07:22.048Z,8.30
2023-01-23T02:09:52.835Z,7.10
2023-01-23T02:12:23.170Z,6.80
2023-01-23T02:14:54.053Z,7.50
2023-01-23T02:17:24.383Z,7.10
2023-01-23T02:20:00.142Z,7.50
2023-01-23T02:22:37.470Z,7.90
2023-01-23T02:25:12.423Z,6.90
2023-01-23T02:27:42.921Z,9.20
2023-01-23T02:30:15.825Z,9.40
2023-01-23T02:32:46.667Z,7.90
2023-01-23T02:35:20.888Z,8.30
2023-01-23T02:37:55.459Z,9.50
2023-01-23T02:40:36.474Z,7.20
2023-01-23T02:43:08.749Z,11.10
2023-01-23T02:45:39.925Z,6.30
2023-01-23T02:48:11.494Z,6.70
2023-01-23T02:50:43.377Z,6.80
2023-01-23T02:53:13.720Z,6.50
2023-01-23T02:55:45.026Z,9.10
2023-01-23T02:58:32.807Z,8.30
2023-01-23T03:01:03.134Z,7.20
2023-01-23T03:03:33.499Z,7.60
2023-01-23T03:06:05.942Z,9.50
2023-01-23T03:08:47.085Z,8.30
2023-01-23T03:11:19.467Z,8.40
2023-01-23T03:13:50.349Z,8.40
2023-01-23T03:16:20.715Z,6.00
2023-01-23T03:18:54.585Z,6.40
2023-01-23T03:21:26.162Z,7.80
2023-01-23T03:23:56.431Z,8.90
2023-01-23T03:26:26.842Z,8.90
2023-01-23T03:29:14.995Z,8.10
2023-01-23T03:31:45.493Z,8.70
2023-01-23T03:34:17.843Z,8.20
2023-01-23T03:36:48.246Z,11.70
2023-01-23T03:39:35.841Z,8.10
2023-01-23T03:42:06.594Z,8.90
2023-01-23T03:44:37.014Z,7.90
2023-01-23T03:47:08.032Z,8.90
2023-01-23T03:49:39.052Z,7.60
2023-01-23T03:52:09.469Z,8.60
2023-01-23T03:54:39.978Z,8.10
2023-01-23T03:57:12.018Z,9.70
2023-01-23T04:00:06.981Z,7.00
2023-01-23T04:02:49.623Z,8.50
2023-01-23T04:05:20.540Z,10.10
2023-01-23T04:07:50.964Z,7.50
2023-01-23T04:10:21.969Z,9.40
2023-01-23T04:12:56.482Z,8.40
2023-01-23T04:15:26.817Z,6.80
2023-01-23T04:17:58.368Z,6.70
2023-01-23T04:20:29.231Z,6.30
2023-01-23T04:22:59.643Z,6.10
2023-01-23T04:25:31.046Z,6.80
2023-01-23T04:28:01.391Z,7.50
2023-01-23T04:30:31.970Z,8.40
2023-01-23T04:33:04.113Z,5.90
2023-01-23T04:35:37.513Z,6.10
2023-01-23T04:38:08.152Z,5.70
2023-01-23T04:40:39.856Z,7.10
2023-01-23T04:43:10.627Z,5.80
2023-01-23T04:45:51.515Z,6.50
2023-01-23T04:48:32.034Z,6.30
2023-01-23T04:51:03.853Z,5.90
2023-01-23T04:53:35.276Z,5.90
2023-01-23T04:56:07.327Z,6.50
2023-01-23T04:58:38.571Z,4.30
2023-01-23T05:01:11.090Z,5.20
2023-01-23T05:03:42.708Z,4.50
2023-01-23T05:06:14.275Z,5.50
2023-01-23T05:08:47.080Z,5.60
2023-01-23T05:11:24.727Z,7.10
2023-01-23T05:13:56.963Z,5.20
2023-01-23T05:16:28.847Z,5.60
2023-01-23T05:19:18.686Z,3.80
2023-01-23T05:21:50.398Z,7.30
2023-01-23T05:24:24.713Z,4.60
2023-01-23T05:26:57.492Z,6.90
2023-01-23T05:29:29.840Z,5.70
2023-01-23T05:34:47.193Z,7.40
2023-01-23T05:37:25.723Z,7.60
2023-01-23T05:39:59.699Z,6.70
2023-01-23T05:42:42.439Z,7.50
2023-01-23T05:45:40.556Z,7.20
2023-01-23T05:48:16.547Z,7.70
2023-01-23T05:50:48.641Z,6.80
2023-01-23T05:53:21.309Z,9.50
2023-01-23T05:55:53.460Z,5.60
2023-01-23T05:58:26.766Z,6.40
2023-01-23T06:01:21.409Z,7.50
2023-01-23T06:04:13.612Z,7.20
2023-01-23T06:06:53.449Z,7.90
2023-01-23T06:09:25.819Z,6.60
2023-01-23T06:11:58.395Z,4.70
2023-01-23T06:14:40.085Z,7.40
2023-01-23T06:17:11.641Z,6.90
2023-01-23T06:19:43.699Z,7.30
2023-01-23T06:22:15.870Z,7.20
2023-01-23T06:25:18.551Z,7.30
2023-01-23T06:27:52.979Z,6.60
2023-01-23T06:30:27.902Z,6.40
2023-01-23T06:33:00.686Z,7.60
2023-01-23T06:35:37.938Z,7.30
2023-01-23T06:38:11.570Z,7.30
2023-01-23T06:40:43.883Z,7.30
2023-01-23T06:43:29.525Z,7.20
2023-01-23T06:46:01.915Z,6.00
2023-01-23T06:48:34.615Z,6.00
2023-01-23T06:51:06.451Z,6.10
2023-01-23T06:53:39.488Z,5.40
2023-01-23T06:56:11.673Z,4.80
2023-01-23T06:58:46.761Z,7.30
2023-01-23T07:01:31.657Z,6.70
2023-01-23T07:04:21.958Z,6.90
2023-01-23T07:06:55.685Z,6.20
2023-01-23T07:09:29.598Z,7.70
2023-01-23T07:12:23.181Z,5.00
2023-01-23T07:14:55.526Z,6.00
2023-01-23T07:17:32.554Z,5.90
2023-01-23T07:20:04.161Z,7.20
2023-01-23T07:22:39.540Z,5.60
2023-01-23T07:25:12.172Z,6.60
2023-01-23T07:27:44.550Z,7.70
2023-01-23T07:30:18.353Z,6.90
2023-01-23T07:32:52.625Z,6.40
2023-01-23T07:37:55.895Z,6.80
2023-01-23T07:40:28.702Z,6.30
2023-01-23T07:43:01.642Z,6.90
2023-01-23T07:45:34.292Z,6.90
2023-01-23T07:48:07.659Z,4.70
2023-01-23T07:50:41.492Z,5.50
2023-01-23T07:53:15.703Z,6.60
2023-01-23T07:55:47.391Z,8.70
2023-01-23T07:58:20.881Z,6.00
2023-01-23T08:00:52.766Z,7.20
2023-01-23T08:03:28.727Z,6.60
2023-01-23T08:06:00.157Z,7.70
2023-01-23T08:08:32.589Z,5.20
2023-01-23T08:11:06.672Z,6.70
2023-01-23T08:13:39.380Z,6.90
2023-01-23T08:16:13.752Z,6.10
2023-01-23T08:18:46.571Z,5.90
2023-01-23T08:21:19.039Z,8.80
2023-01-23T08:23:51.728Z,7.40
2023-01-23T08:26:22.682Z,8.10
2023-01-23T08:28:56.034Z,6.40
2023-01-23T08:31:32.020Z,8.70
2023-01-23T08:34:06.077Z,5.30
2023-01-23T08:36:40.700Z,7.10
2023-01-23T08:39:14.688Z,8.00
2023-01-23T08:41:51.443Z,6.60
2023-01-23T08:44:27.644Z,5.50
2023-01-23T08:47:03.293Z,6.70
2023-01-23T08:49:37.801Z,8.90
2023-01-23T08:52:14.387Z,8.00
2023-01-23T08:54:50.056Z,8.40
2023-01-23T08:57:25.258Z,7.40
2023-01-23T09:00:01.205Z,8.30
2023-01-23T09:02:37.755Z,8.60
2023-01-23T09:05:15.456Z,6.90
2023-01-23T09:07:50.393Z,7.20
2023-01-23T09:10:25.257Z,8.00
2023-01-23T09:13:00.710Z,8.80
2023-01-23T09:15:36.234Z,7.70
2023-01-23T09:18:11.469Z,8.20
2023-01-23T09:20:46.168Z,7.50
2023-01-23T09:23:21.171Z,6.90
2023-01-23T09:25:58.938Z,8.00
2023-01-23T09:34:26.840Z,6.00
2023-01-23T09:36:58.047Z,8.50
2023-01-23T09:39:29.763Z,8.90
2023-01-23T09:42:01.612Z,9.10
2023-01-23T09:44:36.615Z,12.20
2023-01-23T09:47:11.042Z,8.80
2023-01-23T09:49:45.710Z,6.80
2023-01-23T09:52:19.483Z,9.40
2023-01-23T09:54:51.649Z,9.80
2023-01-23T09:57:30.165Z,9.20
2023-01-23T10:00:08.003Z,9.20
2023-01-23T10:02:39.538Z,6.90
2023-01-23T10:05:15.889Z,7.20
2023-01-23T10:08:03.111Z,5.90
2023-01-23T10:11:01.470Z,9.30
2023-01-23T10:13:52.068Z,6.70
2023-01-23T10:21:06.704Z,7.30
2023-01-23T10:23:57.885Z,7.20
2023-01-23T10:26:31.781Z,6.60
2023-01-23T10:29:17.370Z,7.10
2023-01-23T10:31:51.873Z,7.20
2023-01-23T10:34:26.341Z,5.80
2023-01-23T10:37:07.033Z,6.60
2023-01-23T10:39:46.329Z,8.50
2023-01-23T10:42:17.701Z,7.00
2023-01-23T10:44:48.667Z,8.10
2023-01-23T10:47:22.709Z,7.10
2023-01-23T10:49:53.543Z,7.10
2023-01-23T10:52:35.679Z,8.80
2023-01-23T10:55:07.751Z,5.90
2023-01-23T10:57:48.372Z,7.00
2023-01-23T11:00:26.207Z,7.20
2023-01-23T11:02:57.157Z,6.90
2023-01-23T11:05:52.913Z,6.10
2023-01-23T11:08:28.995Z,7.50
2023-01-23T11:11:21.112Z,7.50
2023-01-23T11:13:52.647Z,8.70
2023-01-23T11:16:23.852Z,6.80
2023-01-23T11:18:57.798Z,7.80
2023-01-23T11:21:30.582Z,7.20
2023-01-23T11:24:24.904Z,8.90
2023-01-23T11:27:06.959Z,7.40
2023-01-23T11:29:57.054Z,6.20
2023-01-23T11:32:27.784Z,8.60
2023-01-23T11:35:08.613Z,7.10
2023-01-23T11:37:41.749Z,7.00
2023-01-23T11:42:45.396Z,9.10
2023-01-23T11:45:21.066Z,7.40
2023-01-23T11:48:09.333Z,7.30
2023-01-23T11:50:54.925Z,7.90
2023-01-23T11:53:41.828Z,8.40
2023-01-23T11:56:44.102Z,6.90
2023-01-23T11:59:35.913Z,8.70
2023-01-23T12:02:32.835Z,7.10
2023-01-23T12:05:12.267Z,7.50
2023-01-23T12:07:47.098Z,8.50
2023-01-23T12:10:24.916Z,7.60
2023-01-23T12:13:08.407Z,8.60
2023-01-23T12:15:46.542Z,8.70
2023-01-23T12:18:25.359Z,7.80
2023-01-23T12:21:02.585Z,6.60
2023-01-23T12:23:41.898Z,7.20
2023-01-23T12:26:16.436Z,11.40
2023-01-23T12:29:01.919Z,7.40
2023-01-23T12:31:40.899Z,8.30
2023-01-23T12:34:22.051Z,7.40
2023-01-23T12:37:14.142Z,7.40
2023-01-23T12:39:59.435Z,7.80
2023-01-23T12:42:32.047Z,7.80
2023-01-23T12:45:07.505Z,7.90
2023-01-23T12:47:42.585Z,8.60
2023-01-23T12:50:20.022Z,7.50
2023-01-23T12:52:52.422Z,7.90
2023-01-23T12:55:25.422Z,7.70
2023-01-23T12:57:59.962Z,9.30
2023-01-23T13:00:39.868Z,8.50
2023-01-23T13:03:24.677Z,8.00
2023-01-23T13:06:06.509Z,9.10
2023-01-23T13:08:58.064Z,7.60
2023-01-23T13:11:41.539Z,8.50
2023-01-23T13:14:29.126Z,9.20
2023-01-23T13:17:02.875Z,8.80
2023-01-23T13:19:51.914Z,8.80
2023-01-23T13:22:30.661Z,9.20
2023-01-23T13:25:13.145Z,8.20
2023-01-23T13:27:55.146Z,8.70
2023-01-23T13:30:49.435Z,7.40
2023-01-23T13:33:55.267Z,8.10
2023-01-23T13:36:37.341Z,8.40
2023-01-23T13:39:29.936Z,7.90
2023-01-23T13:42:36.571Z,7.90
2023-01-23T13:45:27.049Z,7.30
2023-01-23T14:20:55.941Z,9.60
2023-01-23T14:23:33.969Z,8.00
2023-01-23T14:26:05.798Z,9.40
2023-01-23T14:28:36.201Z,9.60
2023-01-23T14:31:08.742Z,11.00
2023-01-23T14:33:46.264Z,8.90
2023-01-23T14:36:20.478Z,6.80
2023-01-23T14:38:52.641Z,7.30
2023-01-23T14:41:31.122Z,7.40
2023-01-23T14:44:02.941Z,9.40
2023-01-23T14:46:37.547Z,10.60
2023-01-23T14:49:09.759Z,9.00
2023-01-23T14:51:40.100Z,9.70
2023-01-23T14:54:22.834Z,10.30
2023-01-23T14:56:53.583Z,9.00
2023-01-23T14:59:28.358Z,9.90
2023-01-23T15:02:01.842Z,9.40
2023-01-23T15:04:33.708Z,10.80
2023-01-23T15:07:04.622Z,9.80
2023-01-23T15:09:41.324Z,11.00
2023-01-23T15:12:18.002Z,8.50
2023-01-23T15:14:48.386Z,10.40
2023-01-23T15:17:21.136Z,12.80
2023-01-23T15:19:55.290Z,11.90
2023-01-23T15:22:29.326Z,10.40
2023-01-23T15:24:59.677Z,11.20
2023-01-23T15:27:34.488Z,14.60
2023-01-23T15:30:42.959Z,11.60
2023-01-23T15:33:27.385Z,13.60
2023-01-23T15:36:06.143Z,14.60
2023-01-23T15:38:36.905Z,12.10
2023-01-23T15:41:11.884Z,9.90
2023-01-23T15:43:42.183Z,11.70
2023-01-23T15:46:13.763Z,12.20
2023-01-23T15:48:44.077Z,11.30
2023-01-23T15:51:15.325Z,11.50
2023-01-23T15:53:45.694Z,14.30
2023-01-23T15:56:25.515Z,11.20
2023-01-23T15:58:55.785Z,13.10
2023-01-23T16:01:26.150Z,11.90
2023-01-23T16:03:56.547Z,12.20
2023-01-23T16:06:26.967Z,11.60
2023-01-23T16:09:05.149Z,10.80
2023-01-23T16:11:38.680Z,10.70
2023-01-23T16:14:11.249Z,9.70
2023-01-23T16:16:41.614Z,9.80
2023-01-23T16:19:12.243Z,8.70
2023-01-23T16:21:49.932Z,11.40
2023-01-23T16:24:27.013Z,9.00
2023-01-23T16:27:01.631Z,16.80
2023-01-23T16:29:33.509Z,9.40
2023-01-23T16:32:05.173Z,9.00
2023-01-23T16:34:35.482Z,10.30
2023-01-23T16:37:06.541Z,11.30
2023-01-23T16:39:36.871Z,10.10
2023-01-23T16:42:07.281Z,9.80
2023-01-23T16:44:37.652Z,11.50
2023-01-23T16:47:07.945Z,7.50
2023-01-23T16:49:51.431Z,11.20
2023-01-23T16:52:26.957Z,9.80
2023-01-23T16:54:57.308Z,12.60
2023-01-23T16:57:27.834Z,9.90
2023-01-23T16:59:58.468Z,9.70
2023-01-23T17:02:30.620Z,12.00
2023-01-23T17:05:00.986Z,10.20
2023-01-23T17:07:31.280Z,11.30
2023-01-23T17:10:01.577Z,11.40
2023-01-23T17:12:34.298Z,12.40
2023-01-23T17:15:05.321Z,10.70
2023-01-23T17:17:37.294Z,12.80
2023-01-23T17:20:10.721Z,10.10
2023-01-23T17:22:42.669Z,10.30
2023-01-23T17:25:18.615Z,9.70
2023-01-23T17:28:00.067Z,8.30
2023-01-23T17:30:42.092Z,11.80
2023-01-23T17:33:18.519Z,10.00
2023-01-23T17:35:49.465Z,12.70
2023-01-23T17:38:21.218Z,11.90
2023-01-23T17:40:52.067Z,11.40
2023-01-23T17:43:22.841Z,10.90
2023-01-23T17:45:53.763Z,10.00
2023-01-23T17:48:29.308Z,11.60
2023-01-23T17:51:00.136Z,10.30
2023-01-23T17:53:30.675Z,8.90
2023-01-23T17:56:01.435Z,14.00
2023-01-23T17:58:32.335Z,9.30
2023-01-23T18:01:03.253Z,10.50
2023-01-23T18:03:33.734Z,13.70
2023-01-23T18:06:04.362Z,11.10
2023-01-23T18:08:35.234Z,11.00
2023-01-23T18:11:06.265Z,9.70
2023-01-23T18:13:41.595Z,11.70
2023-01-23T18:16:15.597Z,9.20
2023-01-23T18:18:52.834Z,9.50
2023-01-23T18:21:24.150Z,10.90
2023-01-23T18:23:55.485Z,12.40
2023-01-23T18:26:37.483Z,11.40
2023-01-23T18:29:21.643Z,12.60
2023-01-23T18:32:04.391Z,13.50
2023-01-23T18:34:42.441Z,12.30
2023-01-23T18:37:23.445Z,13.20
2023-01-23T18:40:06.387Z,11.90
2023-01-23T18:42:43.635Z,14.20
2023-01-23T18:45:26.962Z,11.00
2023-01-23T18:48:00.904Z,12.20
2023-01-23T18:50:34.391Z,11.30
2023-01-23T18:53:18.205Z,9.50
2023-01-23T18:55:57.380Z,11.60
2023-01-23T18:58:37.587Z,11.30
2023-01-23T19:01:16.414Z,13.20
2023-01-23T19:03:51.115Z,11.30
2023-01-23T19:06:26.411Z,11.60
2023-01-23T19:08:58.688Z,10.30
2023-01-23T19:11:38.533Z,13.70
2023-01-23T19:14:17.036Z,11.00
2023-01-23T19:16:54.466Z,11.20
2023-01-23T19:19:31.135Z,13.40
2023-01-23T19:22:06.446Z,11.50
2023-01-23T19:24:41.797Z,13.90
2023-01-23T19:34:44.352Z,13.20
2023-01-23T19:37:15.529Z,8.90
2023-01-23T19:39:46.101Z,15.90
2023-01-23T19:42:16.800Z,12.70
2023-01-23T19:44:47.473Z,14.10
2023-01-23T19:47:18.303Z,12.90
2023-01-23T19:49:48.816Z,10.40
2023-01-23T19:52:19.254Z,11.10
2023-01-23T19:54:49.658Z,15.50
2023-01-23T19:57:20.092Z,9.30
2023-01-23T19:59:50.688Z,12.00
2023-01-23T20:02:25.354Z,12.00
2023-01-23T20:04:57.602Z,12.40
2023-01-23T20:07:28.146Z,13.50
2023-01-23T20:09:58.769Z,14.90
2023-01-23T20:12:29.380Z,12.50
2023-01-23T20:14:59.977Z,13.50
2023-01-23T20:17:30.437Z,11.50
2023-01-23T20:20:00.900Z,11.40
2023-01-23T20:22:32.677Z,12.00
2023-01-23T20:25:03.180Z,11.30
2023-01-23T20:27:33.681Z,12.70
2023-01-23T20:30:04.399Z,13.00
2023-01-23T20:32:35.065Z,14.40
2023-01-23T20:35:06.266Z,13.00
2023-01-23T20:37:36.954Z,15.30
2023-01-23T20:40:10.543Z,13.40
2023-01-23T20:42:41.390Z,12.00
2023-01-23T20:45:14.099Z,12.50
2023-01-23T20:47:44.555Z,12.80
2023-01-23T20:50:14.988Z,13.80
2023-01-23T20:53:02.726Z,10.80
2023-01-23T20:55:33.112Z,12.60
2023-01-23T20:58:20.770Z,11.50
2023-01-23T21:00:51.197Z,10.60
2023-01-23T21:03:21.655Z,15.50
2023-01-23T21:05:52.345Z,11.00
2023-01-23T21:08:22.841Z,14.20
2023-01-23T21:10:54.016Z,13.60
2023-01-23T21:13:24.571Z,14.10
2023-01-23T21:16:01.709Z,11.80
2023-01-23T21:18:32.162Z,12.70
2023-01-23T21:21:07.337Z,14.20
2023-01-23T21:23:38.479Z,15.20
2023-01-23T21:26:09.310Z,13.60
2023-01-23T21:28:39.858Z,11.60
2023-01-23T21:31:15.700Z,15.80
2023-01-23T21:33:46.629Z,17.30
2023-01-23T21:36:19.216Z,14.30
2023-01-23T21:38:51.425Z,16.00
2023-01-23T21:41:22.383Z,11.70
2023-01-23T21:43:52.864Z,13.40
2023-01-23T21:46:23.264Z,13.40
2023-01-23T21:48:53.690Z,10.80
2023-01-23T21:51:27.610Z,15.00
2023-01-23T21:53:58.162Z,13.80
2023-01-23T21:56:28.682Z,13.80
2023-01-23T21:58:59.067Z,11.50
2023-01-23T22:01:42.269Z,11.70
2023-01-23T22:04:14.218Z,14.80
2023-01-23T22:06:46.172Z,13.80
2023-01-23T22:09:19.486Z,12.30
2023-01-23T22:11:50.639Z,13.80
2023-01-23T22:14:21.019Z,14.90
2023-01-23T22:16:51.575Z,14.00
2023-01-23T22:19:25.620Z,15.70
2023-01-23T22:21:57.332Z,12.50
2023-01-23T22:24:27.926Z,13.30
2023-01-23T22:26:58.281Z,11.30
2023-01-23T22:29:28.989Z,16.20
2023-01-23T22:31:59.415Z,14.30
2023-01-23T22:34:29.910Z,15.10
2023-01-23T22:37:00.451Z,13.50
2023-01-23T22:39:31.004Z,13.20
2023-01-23T22:42:02.683Z,13.80
2023-01-23T22:44:33.526Z,12.40
2023-01-23T22:47:03.841Z,14.10
2023-01-23T22:49:34.338Z,14.10
2023-01-23T22:52:04.918Z,11.40
2023-01-23T22:54:35.281Z,16.70
2023-01-23T22:57:05.770Z,12.40
2023-01-23T22:59:36.110Z,13.10
2023-01-23T23:02:06.503Z,14.50
2023-01-23T23:04:37.018Z,12.20
2023-01-23T23:07:07.468Z,11.90
2023-01-23T23:09:37.880Z,13.80
2023-01-23T23:12:08.431Z,14.70
2023-01-23T23:14:40.301Z,12.50
2023-01-23T23:17:10.678Z,14.80
2023-01-23T23:19:41.217Z,12.90
2023-01-23T23:22:11.537Z,13.50
2023-01-23T23:24:42.010Z,14.50
2023-01-23T23:27:12.379Z,15.10
2023-01-23T23:29:42.800Z,14.00
2023-01-23T23:32:13.174Z,11.10
2023-01-23T23:34:45.035Z,14.70
2023-01-23T23:37:15.316Z,12.20
2023-01-23T23:39:45.697Z,14.90
2023-01-23T23:42:15.983Z,12.30
2023-01-23T23:44:46.331Z,12.80
2023-01-23T23:47:16.610Z,13.60
2023-01-23T23:49:46.968Z,16.50
2023-01-23T23:52:17.413Z,12.80
2023-01-23T23:54:47.712Z,11.00
2023-01-23T23:57:18.020Z,15.40
2023-01-23T23:59:48.536Z,12.90
